createdAt,value
2022-08-16T00:00:46.394Z,24.10
2022-08-16T00:05:49.179Z,19.00
2022-08-16T00:11:00.079Z,16.05
2022-08-16T00:17:05.736Z,17.95
2022-08-16T00:21:26.632Z,19.25
2022-08-16T00:26:36.408Z,18.00
2022-08-16T00:32:00.694Z,16.17
2022-08-16T00:37:07.838Z,19.23
2022-08-16T00:42:10.487Z,18.63
2022-08-16T00:47:16.589Z,17.10
2022-08-16T00:52:30.062Z,19.35
2022-08-16T00:58:00.165Z,17.73
2022-08-16T01:02:59.708Z,21.13
2022-08-16T01:08:34.923Z,18.20
2022-08-16T01:13:29.117Z,16.25
2022-08-16T01:18:44.446Z,17.13
2022-08-16T01:24:52.726Z,19.42
2022-08-16T01:30:19.533Z,17.13
2022-08-16T01:35:29.903Z,19.95
2022-08-16T01:40:38.594Z,19.50
2022-08-16T01:45:41.704Z,19.42
2022-08-16T01:51:15.579Z,16.88
2022-08-16T01:56:23.105Z,18.57
2022-08-16T02:01:28.522Z,17.73
2022-08-16T02:06:34.446Z,16.33
2022-08-16T02:11:48.558Z,17.15
2022-08-16T02:17:01.763Z,17.70
2022-08-16T02:22:33.828Z,22.50
2022-08-16T02:27:33.888Z,19.73
2022-08-16T02:33:02.442Z,20.10
2022-08-16T02:38:01.599Z,21.67
2022-08-16T02:43:10.987Z,19.80
2022-08-16T02:48:30.643Z,17.85
2022-08-16T02:53:36.897Z,17.25
2022-08-16T02:58:41.593Z,16.10
2022-08-16T03:04:39.845Z,16.77
2022-08-16T03:09:13.581Z,17.17
2022-08-16T03:14:24.668Z,24.17
2022-08-16T03:19:46.805Z,24.52
2022-08-16T03:24:52.478Z,20.77
2022-08-16T03:29:55.074Z,21.15
2022-08-16T03:34:59.381Z,20.92
2022-08-16T03:40:03.169Z,22.90
2022-08-16T03:45:07.963Z,21.52
2022-08-16T03:50:25.309Z,23.40
2022-08-16T03:55:39.999Z,18.17
2022-08-16T04:00:56.772Z,18.88
2022-08-16T04:06:03.657Z,20.75
2022-08-16T04:11:06.823Z,19.10
2022-08-16T04:16:26.322Z,22.30
2022-08-16T04:21:47.302Z,19.63
2022-08-16T04:26:52.392Z,19.52
2022-08-16T04:31:58.024Z,22.55
2022-08-16T04:37:07.037Z,24.33
2022-08-16T04:42:16.297Z,25.65
2022-08-16T04:47:21.465Z,20.48
2022-08-16T04:52:35.166Z,22.27
2022-08-16T04:57:41.433Z,20.10
2022-08-16T05:02:46.230Z,20.60
2022-08-16T05:07:58.494Z,21.52
2022-08-16T05:13:06.627Z,21.98
2022-08-16T05:18:15.726Z,25.38
2022-08-16T05:23:26.156Z,34.67
2022-08-16T05:28:38.994Z,24.88
2022-08-16T05:33:44.058Z,23.02
2022-08-16T05:38:58.186Z,33.80
2022-08-16T05:44:05.548Z,34.72
2022-08-16T05:49:38.877Z,31.48
2022-08-16T05:54:47.320Z,114.22
2022-08-16T05:59:59.604Z,58.10
2022-08-16T06:05:14.806Z,33.13
2022-08-16T06:10:22.773Z,27.95
2022-08-16T06:15:35.304Z,29.02
2022-08-16T06:20:55.725Z,28.17
2022-08-16T06:25:59.717Z,25.50
2022-08-16T06:31:12.200Z,22.92
2022-08-16T06:36:17.869Z,24.48
2022-08-16T06:41:39.855Z,23.65
2022-08-16T06:46:52.016Z,22.85
2022-08-16T06:52:02.849Z,65.90
2022-08-16T06:57:11.810Z,31.13
2022-08-16T07:02:33.501Z,34.05
2022-08-16T07:07:39.181Z,27.20
2022-08-16T07:13:04.004Z,27.17
2022-08-16T07:18:15.254Z,22.27
2022-08-16T07:23:21.115Z,19.23
2022-08-16T07:28:40.344Z,19.40
2022-08-16T07:33:52.173Z,24.58
2022-08-16T07:39:01.672Z,20.98
2022-08-16T07:44:15.575Z,21.65
2022-08-16T07:49:20.702Z,19.45
2022-08-16T07:54:32.197Z,15.68
2022-08-16T07:59:45.959Z,12.40
2022-08-16T08:04:49.545Z,13.05
2022-08-16T08:09:53.115Z,11.95
2022-08-16T08:14:56.117Z,14.00
2022-08-16T08:19:59.263Z,16.52
2022-08-16T08:25:03.931Z,12.60
2022-08-16T08:30:49.643Z,12.55
2022-08-16T08:35:34.864Z,19.90
2022-08-16T08:40:38.100Z,16.48
2022-08-16T08:45:53.253Z,17.08
2022-08-16T08:50:58.069Z,15.98
2022-08-16T08:56:22.905Z,15.52
2022-08-16T09:01:43.110Z,14.82
2022-08-16T09:07:01.266Z,15.98
2022-08-16T09:12:07.364Z,19.52
2022-08-16T09:17:45.674Z,14.27
2022-08-16T09:22:52.456Z,15.50
2022-08-16T09:28:02.516Z,15.20
2022-08-16T09:33:07.686Z,18.40
2022-08-16T09:38:12.372Z,13.48
2022-08-16T09:43:53.303Z,14.25
2022-08-16T09:48:51.666Z,14.88
2022-08-16T09:53:56.056Z,12.32
2022-08-16T09:59:03.669Z,10.48
2022-08-16T10:04:29.736Z,12.30
2022-08-16T10:09:45.071Z,9.00
2022-08-16T10:14:53.667Z,8.13
2022-08-16T10:19:56.154Z,7.63
2022-08-16T10:25:00.007Z,7.50
2022-08-16T10:30:25.112Z,7.68
2022-08-16T10:35:32.572Z,8.98
2022-08-16T10:40:35.978Z,6.45
2022-08-16T10:45:40.737Z,8.18
2022-08-16T10:50:45.531Z,7.95
2022-08-16T10:55:47.880Z,12.20
2022-08-16T11:01:00.747Z,6.70
2022-08-16T11:06:11.942Z,7.93
2022-08-16T11:11:19.731Z,10.10
2022-08-16T11:16:26.314Z,8.52
2022-08-16T11:21:29.913Z,8.63
2022-08-16T11:26:33.078Z,9.45
2022-08-16T11:31:36.135Z,7.85
2022-08-16T11:36:59.436Z,7.95
2022-08-16T11:42:03.496Z,12.63
2022-08-16T11:47:25.750Z,8.80
2022-08-16T11:52:28.127Z,13.65
2022-08-16T11:57:30.598Z,8.63
2022-08-16T12:02:34.619Z,8.43
2022-08-16T12:07:36.993Z,10.13
2022-08-16T12:12:39.348Z,7.70
2022-08-16T12:17:43.477Z,8.68
2022-08-16T12:22:46.599Z,10.65
2022-08-16T12:27:51.055Z,8.63
2022-08-16T12:32:54.704Z,7.90
2022-08-16T12:38:38.294Z,8.77
2022-08-16T12:43:25.591Z,9.75
2022-08-16T12:48:50.505Z,8.70
2022-08-16T12:53:58.012Z,11.65
2022-08-16T12:59:05.013Z,11.18
2022-08-16T13:04:11.995Z,11.27
2022-08-16T13:09:26.143Z,14.00
2022-08-16T13:14:37.895Z,11.90
2022-08-16T13:25:06.433Z,6.95
2022-08-16T13:30:21.809Z,6.40
2022-08-16T13:35:34.324Z,11.57
2022-08-16T13:40:36.901Z,8.98
2022-08-16T13:45:44.905Z,8.95
2022-08-16T13:50:51.907Z,8.65
2022-08-16T13:55:57.763Z,8.18
2022-08-16T14:01:02.263Z,9.50
2022-08-16T14:06:04.738Z,14.25
2022-08-16T14:11:12.100Z,9.25
2022-08-16T14:16:24.598Z,13.30
2022-08-16T14:21:37.304Z,7.25
2022-08-16T14:26:41.263Z,8.18
2022-08-16T14:31:45.811Z,10.85
2022-08-16T14:36:52.881Z,7.43
2022-08-16T14:41:56.213Z,7.65
2022-08-16T14:46:58.659Z,13.23
2022-08-16T14:52:04.563Z,6.57
2022-08-16T14:57:07.897Z,8.68
2022-08-16T15:02:34.250Z,6.50
2022-08-16T15:07:47.391Z,8.68
2022-08-16T15:12:58.411Z,11.93
2022-08-16T15:18:02.313Z,6.47
2022-08-16T15:23:07.926Z,6.47
2022-08-16T15:28:30.701Z,6.82
2022-08-16T15:33:38.876Z,12.07
2022-08-16T15:39:02.852Z,7.20
2022-08-16T15:44:11.520Z,8.70
2022-08-16T15:49:15.696Z,6.82
2022-08-16T15:54:28.979Z,10.77
2022-08-16T15:59:48.163Z,9.27
2022-08-16T16:04:51.973Z,8.40
2022-08-16T16:09:56.287Z,9.98
2022-08-16T16:15:01.459Z,9.00
2022-08-16T16:20:08.191Z,6.90
2022-08-16T16:25:19.232Z,8.90
2022-08-16T16:30:42.944Z,7.97
2022-08-16T16:35:46.861Z,11.52
2022-08-16T16:40:54.345Z,6.57
2022-08-16T16:45:58.779Z,14.93
2022-08-16T16:51:05.113Z,14.80
2022-08-16T16:56:20.085Z,10.95
2022-08-16T17:01:57.586Z,6.68
2022-08-16T17:06:57.988Z,5.85
2022-08-16T17:12:00.467Z,6.32
2022-08-16T17:17:06.684Z,8.88
2022-08-16T17:22:14.369Z,6.05
2022-08-16T17:27:33.287Z,6.93
2022-08-16T17:32:47.290Z,7.10
2022-08-16T17:37:52.479Z,8.65
2022-08-16T17:43:16.394Z,7.68
2022-08-16T17:48:19.228Z,10.60
2022-08-16T17:53:21.831Z,8.48
2022-08-16T17:58:24.634Z,8.38
2022-08-16T18:04:02.360Z,8.60
2022-08-16T18:09:03.936Z,9.00
2022-08-16T18:14:06.601Z,9.70
2022-08-16T18:19:10.334Z,10.45
2022-08-16T18:24:14.962Z,10.25
2022-08-16T18:29:18.162Z,21.13
2022-08-16T18:34:20.782Z,9.75
2022-08-16T18:39:23.178Z,8.73
2022-08-16T18:44:30.102Z,9.90
2022-08-16T18:49:35.182Z,11.82
2022-08-16T18:55:02.097Z,19.58
2022-08-16T18:59:59.955Z,19.52
2022-08-16T19:05:03.047Z,16.67
2022-08-16T19:10:07.098Z,11.60
2022-08-16T19:15:22.851Z,16.23
2022-08-16T19:20:27.203Z,10.98
2022-08-16T19:25:46.698Z,12.68
2022-08-16T19:30:52.200Z,13.45
2022-08-16T19:35:54.653Z,12.15
2022-08-16T19:40:57.048Z,12.77
2022-08-16T19:45:59.519Z,15.18
2022-08-16T19:51:01.855Z,17.73
2022-08-16T19:56:04.832Z,21.25
2022-08-16T20:01:07.212Z,16.20
2022-08-16T20:06:11.140Z,16.17
2022-08-16T20:11:32.019Z,12.68
2022-08-16T20:16:37.021Z,14.15
2022-08-16T20:21:39.430Z,15.90
2022-08-16T20:26:42.026Z,15.73
2022-08-16T20:31:44.525Z,14.77
2022-08-16T20:36:46.894Z,17.23
2022-08-16T20:41:49.708Z,16.50
2022-08-16T20:46:52.215Z,15.00
2022-08-16T20:51:59.121Z,18.75
2022-08-16T20:57:02.037Z,21.77
2022-08-16T21:02:04.647Z,35.30
2022-08-16T21:07:07.872Z,28.27
2022-08-16T21:12:13.676Z,25.77
2022-08-16T21:17:23.119Z,22.38
2022-08-16T21:22:25.838Z,22.52
2022-08-16T21:27:28.296Z,24.13
2022-08-16T21:32:35.017Z,24.60
2022-08-16T21:37:38.671Z,21.33
2022-08-16T21:42:42.470Z,23.08
2022-08-16T21:47:44.873Z,20.35
2022-08-16T21:52:47.250Z,23.85
2022-08-16T21:57:49.588Z,21.38
2022-08-16T22:02:58.233Z,21.80
2022-08-16T22:08:01.747Z,25.23
2022-08-16T22:13:18.529Z,21.80
2022-08-16T22:18:21.617Z,16.27
2022-08-16T22:23:25.956Z,16.45
2022-08-16T22:28:28.393Z,15.93
2022-08-16T22:33:30.756Z,15.45
2022-08-16T22:38:53.976Z,22.75
2022-08-16T22:43:56.674Z,18.50
2022-08-16T22:48:59.074Z,18.98
2022-08-16T22:54:34.163Z,15.30
2022-08-16T22:59:25.261Z,20.45
2022-08-16T23:04:27.678Z,17.17
2022-08-16T23:09:30.368Z,16.27
2022-08-16T23:14:32.942Z,18.25
2022-08-16T23:19:35.317Z,22.65
2022-08-16T23:24:56.156Z,20.25
2022-08-16T23:30:00.172Z,18.80
2022-08-16T23:35:03.935Z,19.00
2022-08-16T23:40:11.551Z,16.73
2022-08-16T23:45:14.010Z,17.88
2022-08-16T23:50:17.088Z,20.05
2022-08-16T23:55:19.601Z,26.75
